sensor_id;sensor_type;location;lat;lon;timestamp;pressure;altitude;pressure_sealevel;temperature;humidity
19510;BME280;9896;42.486;26.506;2023-04-01T00:01:39;99068.66;;;9.37;100.00
19510;BME280;9896;42.486;26.506;2023-04-01T00:04:05;99064.56;;;9.34;100.00
19510;BME280;9896;42.486;26.506;2023-04-01T00:06:30;99099.31;;;9.34;100.00
19510;BME280;9896;42.486;26.506;2023-04-01T00:08:56;99076.81;;;9.17;100.00
19510;BME280;9896;42.486;26.506;2023-04-01T00:11:24;99085.78;;;9.29;100.00
19510;BME280;9896;42.486;26.506;2023-04-01T00:13:55;99065.84;;;9.25;100.00
19510;BME280;9896;42.486;26.506;2023-04-01T00:16:24;99081.09;;;9.25;100.00
19510;BME280;9896;42.486;26.506;2023-04-01T00:18:50;99082.97;;;8.93;100.00
19510;BME280;9896;42.486;26.506;2023-04-01T00:21:16;99088.75;;;8.90;100.00
19510;BME280;9896;42.486;26.506;2023-04-01T00:23:42;99095.56;;;8.86;100.00
19510;BME280;9896;42.486;26.506;2023-04-01T00:26:08;99072.75;;;8.83;100.00
19510;BME280;9896;42.486;26.506;2023-04-01T00:28:37;99071.75;;;8.78;100.00
19510;BME280;9896;42.486;26.506;2023-04-01T00:31:07;99053.16;;;8.58;100.00
19510;BME280;9896;42.486;26.506;2023-04-01T00:33:33;99061.50;;;8.75;100.00
19510;BME280;9896;42.486;26.506;2023-04-01T00:36:25;99078.06;;;8.90;100.00
19510;BME280;9896;42.486;26.506;2023-04-01T00:38:51;99075.88;;;8.74;100.00
19510;BME280;9896;42.486;26.506;2023-04-01T00:41:18;99057.34;;;8.48;100.00
19510;BME280;9896;42.486;26.506;2023-04-01T00:43:46;99071.00;;;8.64;100.00
19510;BME280;9896;42.486;26.506;2023-04-01T00:46:12;99029.41;;;8.44;100.00
19510;BME280;9896;42.486;26.506;2023-04-01T00:48:42;99044.38;;;8.51;100.00
19510;BME280;9896;42.486;26.506;2023-04-01T00:51:16;99026.34;;;8.40;100.00
19510;BME280;9896;42.486;26.506;2023-04-01T00:53:48;99026.13;;;8.42;100.00
19510;BME280;9896;42.486;26.506;2023-04-01T00:56:27;99033.06;;;8.49;100.00
19510;BME280;9896;42.486;26.506;2023-04-01T00:59:01;99018.31;;;8.40;100.00
19510;BME280;9896;42.486;26.506;2023-04-01T01:01:28;99000.38;;;8.09;100.00
19510;BME280;9896;42.486;26.506;2023-04-01T01:03:55;99012.81;;;8.35;100.00
19510;BME280;9896;42.486;26.506;2023-04-01T01:11:40;98997.94;;;8.77;100.00
19510;BME280;9896;42.486;26.506;2023-04-01T01:16:50;99003.97;;;8.34;100.00
19510;BME280;9896;42.486;26.506;2023-04-01T01:27:28;99024.34;;;8.29;100.00
19510;BME280;9896;42.486;26.506;2023-04-01T01:33:01;99032.66;;;8.01;100.00
19510;BME280;9896;42.486;26.506;2023-04-01T01:38:13;98988.31;;;7.93;100.00
19510;BME280;9896;42.486;26.506;2023-04-01T01:40:42;98985.28;;;7.90;100.00
19510;BME280;9896;42.486;26.506;2023-04-01T01:43:13;98994.44;;;8.01;100.00
19510;BME280;9896;42.486;26.506;2023-04-01T01:45:44;98994.09;;;7.90;100.00
19510;BME280;9896;42.486;26.506;2023-04-01T01:48:10;99003.69;;;8.05;100.00
19510;BME280;9896;42.486;26.506;2023-04-01T01:50:36;98994.09;;;7.90;100.00
19510;BME280;9896;42.486;26.506;2023-04-01T01:53:05;98982.38;;;7.91;100.00
19510;BME280;9896;42.486;26.506;2023-04-01T01:55:36;98967.13;;;8.05;100.00
19510;BME280;9896;42.486;26.506;2023-04-01T01:58:25;98975.06;;;8.18;100.00
19510;BME280;9896;42.486;26.506;2023-04-01T02:00:59;98983.13;;;8.50;100.00
19510;BME280;9896;42.486;26.506;2023-04-01T02:03:34;98990.00;;;8.32;100.00
19510;BME280;9896;42.486;26.506;2023-04-01T02:06:04;98960.16;;;8.42;100.00
19510;BME280;9896;42.486;26.506;2023-04-01T02:11:12;98950.47;;;8.48;100.00
19510;BME280;9896;42.486;26.506;2023-04-01T02:16:22;98988.13;;;8.39;100.00
19510;BME280;9896;42.486;26.506;2023-04-01T02:18:50;98956.72;;;8.35;100.00
19510;BME280;9896;42.486;26.506;2023-04-01T02:21:20;98988.34;;;8.69;100.00
19510;BME280;9896;42.486;26.506;2023-04-01T02:23:46;98987.50;;;8.75;100.00
19510;BME280;9896;42.486;26.506;2023-04-01T02:26:13;98964.88;;;8.47;100.00
19510;BME280;9896;42.486;26.506;2023-04-01T02:28:40;98970.31;;;8.27;100.00
19510;BME280;9896;42.486;26.506;2023-04-01T02:31:08;98984.94;;;8.11;100.00
19510;BME280;9896;42.486;26.506;2023-04-01T02:33:36;99003.25;;;8.08;100.00
19510;BME280;9896;42.486;26.506;2023-04-01T02:36:03;99006.03;;;8.26;100.00
19510;BME280;9896;42.486;26.506;2023-04-01T02:38:29;99015.09;;;8.25;100.00
19510;BME280;9896;42.486;26.506;2023-04-01T02:41:00;98982.47;;;8.16;100.00
19510;BME280;9896;42.486;26.506;2023-04-01T02:43:27;98978.78;;;8.17;100.00
19510;BME280;9896;42.486;26.506;2023-04-01T02:45:52;98966.69;;;8.15;100.00
19510;BME280;9896;42.486;26.506;2023-04-01T02:48:18;98966.50;;;8.03;100.00
19510;BME280;9896;42.486;26.506;2023-04-01T02:50:43;98979.47;;;8.00;100.00
19510;BME280;9896;42.486;26.506;2023-04-01T02:53:09;98966.69;;;7.51;100.00
19510;BME280;9896;42.486;26.506;2023-04-01T02:55:35;98966.13;;;7.35;100.00
19510;BME280;9896;42.486;26.506;2023-04-01T02:58:00;98958.81;;;7.75;100.00
19510;BME280;9896;42.486;26.506;2023-04-01T03:00:29;98949.50;;;7.91;100.00
19510;BME280;9896;42.486;26.506;2023-04-01T03:02:55;98939.50;;;7.86;100.00
19510;BME280;9896;42.486;26.506;2023-04-01T03:05:22;98929.88;;;7.79;100.00
19510;BME280;9896;42.486;26.506;2023-04-01T03:07:47;98940.91;;;7.89;100.00
19510;BME280;9896;42.486;26.506;2023-04-01T03:10:13;98940.03;;;8.02;100.00
19510;BME280;9896;42.486;26.506;2023-04-01T03:12:39;98932.09;;;7.88;100.00
19510;BME280;9896;42.486;26.506;2023-04-01T03:15:10;98959.94;;;8.06;100.00
19510;BME280;9896;42.486;26.506;2023-04-01T03:17:36;98959.31;;;8.04;100.00
19510;BME280;9896;42.486;26.506;2023-04-01T03:20:02;98930.91;;;7.78;100.00
19510;BME280;9896;42.486;26.506;2023-04-01T03:22:30;98942.09;;;7.42;100.00
19510;BME280;9896;42.486;26.506;2023-04-01T03:24:56;98958.75;;;7.31;100.00
19510;BME280;9896;42.486;26.506;2023-04-01T03:27:22;98945.47;;;7.05;100.00
19510;BME280;9896;42.486;26.506;2023-04-01T03:29:48;98928.47;;;6.92;100.00
19510;BME280;9896;42.486;26.506;2023-04-01T03:32:14;98933.19;;;7.04;100.00
19510;BME280;9896;42.486;26.506;2023-04-01T03:34:39;98927.44;;;7.00;100.00
19510;BME280;9896;42.486;26.506;2023-04-01T03:37:05;98921.00;;;7.40;100.00
19510;BME280;9896;42.486;26.506;2023-04-01T03:39:31;98929.97;;;7.53;100.00
19510;BME280;9896;42.486;26.506;2023-04-01T03:41:57;98944.50;;;7.70;100.00
19510;BME280;9896;42.486;26.506;2023-04-01T03:44:22;98935.03;;;7.74;100.00
19510;BME280;9896;42.486;26.506;2023-04-01T03:46:48;98923.94;;;7.70;100.00
19510;BME280;9896;42.486;26.506;2023-04-01T03:49:13;98939.06;;;7.89;100.00
19510;BME280;9896;42.486;26.506;2023-04-01T03:51:42;98931.69;;;7.85;100.00
19510;BME280;9896;42.486;26.506;2023-04-01T03:54:09;98936.31;;;7.65;100.00
19510;BME280;9896;42.486;26.506;2023-04-01T03:56:36;98948.31;;;7.87;100.00
19510;BME280;9896;42.486;26.506;2023-04-01T03:59:04;98922.13;;;7.64;100.00
19510;BME280;9896;42.486;26.506;2023-04-01T04:01:30;98931.31;;;7.75;100.00
19510;BME280;9896;42.486;26.506;2023-04-01T04:03:56;98924.97;;;7.76;100.00
19510;BME280;9896;42.486;26.506;2023-04-01T04:06:22;98928.06;;;7.66;100.00
19510;BME280;9896;42.486;26.506;2023-04-01T04:08:48;98924.84;;;7.51;100.00
19510;BME280;9896;42.486;26.506;2023-04-01T04:11:14;98923.63;;;7.54;100.00
19510;BME280;9896;42.486;26.506;2023-04-01T04:13:40;98915.59;;;7.60;100.00
19510;BME280;9896;42.486;26.506;2023-04-01T04:16:06;98926.84;;;7.69;100.00
19510;BME280;9896;42.486;26.506;2023-04-01T04:18:32;98938.69;;;7.86;100.00
19510;BME280;9896;42.486;26.506;2023-04-01T04:20:58;98924.59;;;7.66;100.00
19510;BME280;9896;42.486;26.506;2023-04-01T04:23:23;98949.31;;;7.92;100.00
19510;BME280;9896;42.486;26.506;2023-04-01T04:25:57;98941.00;;;8.14;100.00
19510;BME280;9896;42.486;26.506;2023-04-01T04:28:23;98932.16;;;8.13;100.00
19510;BME280;9896;42.486;26.506;2023-04-01T04:30:48;98912.22;;;8.16;100.00
19510;BME280;9896;42.486;26.506;2023-04-01T04:33:14;98918.94;;;8.25;100.00
19510;BME280;9896;42.486;26.506;2023-04-01T04:35:41;98908.00;;;8.02;100.00
19510;BME280;9896;42.486;26.506;2023-04-01T04:38:06;98904.56;;;7.88;100.00
19510;BME280;9896;42.486;26.506;2023-04-01T04:40:32;98904.13;;;7.46;100.00
19510;BME280;9896;42.486;26.506;2023-04-01T04:42:57;98899.97;;;6.93;100.00
19510;BME280;9896;42.486;26.506;2023-04-01T04:45:23;98892.00;;;6.86;100.00
19510;BME280;9896;42.486;26.506;2023-04-01T04:47:51;98907.72;;;7.14;100.00
19510;BME280;9896;42.486;26.506;2023-04-01T04:50:17;98917.31;;;7.41;100.00
19510;BME280;9896;42.486;26.506;2023-04-01T04:52:42;98899.53;;;7.09;100.00
19510;BME280;9896;42.486;26.506;2023-04-01T04:55:08;98892.00;;;6.53;100.00
19510;BME280;9896;42.486;26.506;2023-04-01T04:57:33;98908.22;;;6.52;100.00
19510;BME280;9896;42.486;26.506;2023-04-01T04:59:59;98906.53;;;6.77;100.00
19510;BME280;9896;42.486;26.506;2023-04-01T05:02:27;98890.09;;;7.07;100.00
19510;BME280;9896;42.486;26.506;2023-04-01T05:04:53;98883.66;;;7.34;100.00
19510;BME280;9896;42.486;26.506;2023-04-01T05:07:19;98861.09;;;7.81;100.00
19510;BME280;9896;42.486;26.506;2023-04-01T05:09:45;98865.50;;;7.62;100.00
19510;BME280;9896;42.486;26.506;2023-04-01T05:12:11;98877.22;;;7.55;100.00
19510;BME280;9896;42.486;26.506;2023-04-01T05:14:38;98868.44;;;7.47;100.00
19510;BME280;9896;42.486;26.506;2023-04-01T05:17:04;98858.44;;;7.81;100.00
19510;BME280;9896;42.486;26.506;2023-04-01T05:19:29;98868.09;;;7.82;100.00
19510;BME280;9896;42.486;26.506;2023-04-01T05:21:55;98873.00;;;7.85;100.00
19510;BME280;9896;42.486;26.506;2023-04-01T05:24:20;98888.44;;;8.08;100.00
19510;BME280;9896;42.486;26.506;2023-04-01T05:26:51;98896.84;;;8.11;100.00
19510;BME280;9896;42.486;26.506;2023-04-01T05:29:17;98904.44;;;8.14;100.00
19510;BME280;9896;42.486;26.506;2023-04-01T05:31:42;98884.00;;;7.95;100.00
19510;BME280;9896;42.486;26.506;2023-04-01T05:34:08;98885.66;;;7.96;100.00
19510;BME280;9896;42.486;26.506;2023-04-01T05:36:33;98889.91;;;8.04;100.00
19510;BME280;9896;42.486;26.506;2023-04-01T05:38:59;98906.09;;;8.09;100.00
19510;BME280;9896;42.486;26.506;2023-04-01T05:41:25;98890.66;;;8.17;100.00
19510;BME280;9896;42.486;26.506;2023-04-01T05:43:50;98902.34;;;8.54;100.00
19510;BME280;9896;42.486;26.506;2023-04-01T05:46:16;98882.03;;;8.15;100.00
19510;BME280;9896;42.486;26.506;2023-04-01T05:48:42;98906.19;;;8.33;100.00
19510;BME280;9896;42.486;26.506;2023-04-01T05:51:14;98895.69;;;8.38;100.00
19510;BME280;9896;42.486;26.506;2023-04-01T05:53:41;98892.50;;;8.73;100.00
19510;BME280;9896;42.486;26.506;2023-04-01T05:56:08;98874.03;;;8.71;100.00
19510;BME280;9896;42.486;26.506;2023-04-01T05:58:35;98871.63;;;8.88;100.00
19510;BME280;9896;42.486;26.506;2023-04-01T06:01:05;98897.53;;;9.06;100.00
19510;BME280;9896;42.486;26.506;2023-04-01T06:03:32;98871.53;;;8.95;100.00
19510;BME280;9896;42.486;26.506;2023-04-01T06:05:58;98875.56;;;9.22;100.00
19510;BME280;9896;42.486;26.506;2023-04-01T06:08:23;98849.28;;;9.37;100.00
19510;BME280;9896;42.486;26.506;2023-04-01T06:19:20;98879.09;;;9.41;100.00
19510;BME280;9896;42.486;26.506;2023-04-01T06:21:59;98877.66;;;9.56;100.00
19510;BME280;9896;42.486;26.506;2023-04-01T06:28:19;98885.47;;;9.88;100.00
19510;BME280;9896;42.486;26.506;2023-04-01T06:31:16;98860.06;;;9.78;100.00
19510;BME280;9896;42.486;26.506;2023-04-01T06:53:20;98866.50;;;11.07;100.00
19510;BME280;9896;42.486;26.506;2023-04-01T06:58:34;98819.97;;;11.41;100.00
19510;BME280;9896;42.486;26.506;2023-04-01T07:01:09;98826.09;;;11.65;100.00
19510;BME280;9896;42.486;26.506;2023-04-01T07:03:57;98846.94;;;11.86;100.00
19510;BME280;9896;42.486;26.506;2023-04-01T07:06:31;98841.38;;;12.04;100.00
19510;BME280;9896;42.486;26.506;2023-04-01T07:08:59;98852.91;;;12.67;100.00
19510;BME280;9896;42.486;26.506;2023-04-01T07:11:32;98854.47;;;12.63;100.00
19510;BME280;9896;42.486;26.506;2023-04-01T07:14:06;98865.13;;;12.41;100.00
19510;BME280;9896;42.486;26.506;2023-04-01T07:17:00;98863.09;;;12.65;100.00
19510;BME280;9896;42.486;26.506;2023-04-01T07:19:48;98860.22;;;12.88;100.00
19510;BME280;9896;42.486;26.506;2023-04-01T07:22:39;98846.50;;;13.06;100.00
19510;BME280;9896;42.486;26.506;2023-04-01T07:25:13;98846.41;;;13.18;100.00
19510;BME280;9896;42.486;26.506;2023-04-01T07:27:41;98844.09;;;13.26;100.00
19510;BME280;9896;42.486;26.506;2023-04-01T07:30:16;98837.78;;;13.37;100.00
19510;BME280;9896;42.486;26.506;2023-04-01T07:32:59;98833.34;;;13.26;100.00
19510;BME280;9896;42.486;26.506;2023-04-01T07:35:42;98827.22;;;13.31;100.00
19510;BME280;9896;42.486;26.506;2023-04-01T07:38:14;98831.88;;;13.62;100.00
19510;BME280;9896;42.486;26.506;2023-04-01T07:40:54;98812.78;;;13.64;100.00
19510;BME280;9896;42.486;26.506;2023-04-01T07:49:15;98779.75;;;14.32;97.09
19510;BME280;9896;42.486;26.506;2023-04-01T08:02:50;98765.88;;;14.18;98.05
19510;BME280;9896;42.486;26.506;2023-04-01T08:05:40;98793.59;;;14.40;97.99
19510;BME280;9896;42.486;26.506;2023-04-01T08:10:52;98770.59;;;14.33;98.11
19510;BME280;9896;42.486;26.506;2023-04-01T08:13:39;98787.59;;;14.65;95.59
19510;BME280;9896;42.486;26.506;2023-04-01T08:19:18;98781.75;;;14.83;93.76
19510;BME280;9896;42.486;26.506;2023-04-01T08:21:56;98768.59;;;14.97;93.02
19510;BME280;9896;42.486;26.506;2023-04-01T08:24:35;98770.88;;;15.20;89.91
19510;BME280;9896;42.486;26.506;2023-04-01T08:27:07;98774.56;;;15.66;88.42
19510;BME280;9896;42.486;26.506;2023-04-01T08:29:51;98769.97;;;15.62;87.95
19510;BME280;9896;42.486;26.506;2023-04-01T08:32:35;98764.31;;;15.68;87.50
19510;BME280;9896;42.486;26.506;2023-04-01T08:37:43;98757.59;;;15.96;85.39
19510;BME280;9896;42.486;26.506;2023-04-01T08:56:47;98738.94;;;16.25;80.92
19510;BME280;9896;42.486;26.506;2023-04-01T08:59:34;98722.44;;;16.62;80.12
19510;BME280;9896;42.486;26.506;2023-04-01T09:27:32;98675.13;;;17.13;80.24
19510;BME280;9896;42.486;26.506;2023-04-01T09:30:17;98681.50;;;17.38;79.67
19510;BME280;9896;42.486;26.506;2023-04-01T09:51:55;98635.78;;;18.56;77.03
19510;BME280;9896;42.486;26.506;2023-04-01T09:54:39;98622.28;;;19.13;73.83
19510;BME280;9896;42.486;26.506;2023-04-01T10:17:06;98579.38;;;17.33;81.07
19510;BME280;9896;42.486;26.506;2023-04-01T10:25:44;98559.84;;;17.99;79.29
19510;BME280;9896;42.486;26.506;2023-04-01T10:47:48;98519.03;;;18.56;75.73
19510;BME280;9896;42.486;26.506;2023-04-01T11:02:43;98483.78;;;19.59;71.32
19510;BME280;9896;42.486;26.506;2023-04-01T11:28:07;98444.47;;;18.68;75.91
19510;BME280;9896;42.486;26.506;2023-04-01T11:33:43;98435.81;;;18.84;75.04
19510;BME280;9896;42.486;26.506;2023-04-01T11:44:25;98423.84;;;19.50;73.22
19510;BME280;9896;42.486;26.506;2023-04-01T11:55:47;98409.75;;;20.03;70.07
19510;BME280;9896;42.486;26.506;2023-04-01T12:01:03;98411.38;;;19.76;65.01
19510;BME280;9896;42.486;26.506;2023-04-01T12:15:10;98375.66;;;20.19;54.43
19510;BME280;9896;42.486;26.506;2023-04-01T12:18:00;98388.75;;;20.30;55.55
19510;BME280;9896;42.486;26.506;2023-04-01T12:26:19;98349.28;;;20.06;55.29
19510;BME280;9896;42.486;26.506;2023-04-01T12:33:55;98363.94;;;19.69;57.46
19510;BME280;9896;42.486;26.506;2023-04-01T12:39:37;98340.84;;;19.39;56.52
19510;BME280;9896;42.486;26.506;2023-04-01T12:56:44;98356.53;;;19.15;59.30
19510;BME280;9896;42.486;26.506;2023-04-01T12:59:39;98340.09;;;19.20;59.63
19510;BME280;9896;42.486;26.506;2023-04-01T13:16:26;98281.16;;;19.61;56.30
19510;BME280;9896;42.486;26.506;2023-04-01T13:19:06;98315.88;;;19.37;56.95
19510;BME280;9896;42.486;26.506;2023-04-01T13:26:36;98310.16;;;19.38;65.31
19510;BME280;9896;42.486;26.506;2023-04-01T13:29:09;98299.47;;;19.42;67.62
19510;BME280;9896;42.486;26.506;2023-04-01T13:37:23;98278.75;;;19.60;67.12
19510;BME280;9896;42.486;26.506;2023-04-01T13:42:51;98269.69;;;19.64;65.70
19510;BME280;9896;42.486;26.506;2023-04-01T13:45:24;98258.22;;;19.26;66.15
19510;BME280;9896;42.486;26.506;2023-04-01T13:47:57;98257.88;;;19.41;64.88
19510;BME280;9896;42.486;26.506;2023-04-01T13:50:32;98220.53;;;19.33;65.27
19510;BME280;9896;42.486;26.506;2023-04-01T13:53:09;98244.81;;;19.02;66.13
19510;BME280;9896;42.486;26.506;2023-04-01T13:58:43;98212.91;;;19.22;64.33
19510;BME280;9896;42.486;26.506;2023-04-01T14:04:23;98210.97;;;19.36;61.93
19510;BME280;9896;42.486;26.506;2023-04-01T14:10:02;98214.66;;;20.25;58.55
19510;BME280;9896;42.486;26.506;2023-04-01T14:13:01;98205.66;;;19.44;59.73
19510;BME280;9896;42.486;26.506;2023-04-01T14:18:19;98186.81;;;19.84;59.15
19510;BME280;9896;42.486;26.506;2023-04-01T14:29:18;98185.16;;;18.70;65.83
19510;BME280;9896;42.486;26.506;2023-04-01T14:34:40;98182.34;;;19.02;64.46
19510;BME280;9896;42.486;26.506;2023-04-01T14:40:20;98161.28;;;19.22;64.39
19510;BME280;9896;42.486;26.506;2023-04-01T14:43:14;98170.44;;;19.26;64.18
19510;BME280;9896;42.486;26.506;2023-04-01T14:48:32;98150.34;;;18.99;65.78
19510;BME280;9896;42.486;26.506;2023-04-01T14:54:08;98143.13;;;18.95;66.64
19510;BME280;9896;42.486;26.506;2023-04-01T14:56:39;98138.09;;;18.88;66.48
19510;BME280;9896;42.486;26.506;2023-04-01T14:59:14;98125.22;;;18.80;66.73
19510;BME280;9896;42.486;26.506;2023-04-01T15:04:49;98135.78;;;18.68;62.63
19510;BME280;9896;42.486;26.506;2023-04-01T15:07:29;98155.47;;;18.87;55.86
19510;BME280;9896;42.486;26.506;2023-04-01T15:10:30;98155.91;;;18.94;53.09
19510;BME280;9896;42.486;26.506;2023-04-01T15:16:06;98168.66;;;18.94;53.44
19510;BME280;9896;42.486;26.506;2023-04-01T15:22:04;98187.56;;;18.85;55.39
19510;BME280;9896;42.486;26.506;2023-04-01T15:27:37;98182.44;;;18.56;57.38
19510;BME280;9896;42.486;26.506;2023-04-01T15:30:36;98180.31;;;18.53;57.03
19510;BME280;9896;42.486;26.506;2023-04-01T15:33:20;98176.25;;;18.51;56.98
19510;BME280;9896;42.486;26.506;2023-04-01T15:43:54;98180.84;;;18.37;57.75
19510;BME280;9896;42.486;26.506;2023-04-01T15:46:48;98213.91;;;18.39;58.48
19510;BME280;9896;42.486;26.506;2023-04-01T16:00:33;98151.97;;;18.14;60.20
19510;BME280;9896;42.486;26.506;2023-04-01T16:03:34;98220.38;;;18.10;61.30
19510;BME280;9896;42.486;26.506;2023-04-01T16:12:18;98195.19;;;17.91;63.85
19510;BME280;9896;42.486;26.506;2023-04-01T16:14:50;98183.41;;;17.82;65.31
19510;BME280;9896;42.486;26.506;2023-04-01T16:20:22;98218.47;;;17.55;67.94
19510;BME280;9896;42.486;26.506;2023-04-01T16:23:00;98249.16;;;17.50;69.12
19510;BME280;9896;42.486;26.506;2023-04-01T16:25:41;98270.88;;;17.27;71.73
19510;BME280;9896;42.486;26.506;2023-04-01T16:36:36;98268.50;;;13.08;100.00
19510;BME280;9896;42.486;26.506;2023-04-01T16:39:30;98290.78;;;12.98;100.00
19510;BME280;9896;42.486;26.506;2023-04-01T16:44:47;98277.28;;;12.46;100.00
19510;BME280;9896;42.486;26.506;2023-04-01T16:47:19;98257.22;;;12.27;100.00
19510;BME280;9896;42.486;26.506;2023-04-01T16:49:58;98276.13;;;12.37;100.00
19510;BME280;9896;42.486;26.506;2023-04-01T16:55:21;98279.19;;;12.56;100.00
19510;BME280;9896;42.486;26.506;2023-04-01T16:57:52;98274.38;;;12.58;100.00
19510;BME280;9896;42.486;26.506;2023-04-01T17:21:07;98342.75;;;12.67;100.00
19510;BME280;9896;42.486;26.506;2023-04-01T17:23:45;98358.66;;;12.74;100.00
19510;BME280;9896;42.486;26.506;2023-04-01T17:31:55;98386.09;;;13.08;100.00
19510;BME280;9896;42.486;26.506;2023-04-01T17:34:53;98408.38;;;13.03;100.00
19510;BME280;9896;42.486;26.506;2023-04-01T17:43:17;98451.28;;;13.15;96.81
19510;BME280;9896;42.486;26.506;2023-04-01T17:45:54;98472.84;;;12.93;97.82
19510;BME280;9896;42.486;26.506;2023-04-01T17:48:36;98475.38;;;12.73;100.00
19510;BME280;9896;42.486;26.506;2023-04-01T17:54:15;98489.50;;;12.36;100.00
19510;BME280;9896;42.486;26.506;2023-04-01T17:57:02;98469.41;;;11.95;100.00
19510;BME280;9896;42.486;26.506;2023-04-01T18:02:06;98475.69;;;12.01;100.00
19510;BME280;9896;42.486;26.506;2023-04-01T18:05:18;98474.34;;;12.03;100.00
19510;BME280;9896;42.486;26.506;2023-04-01T18:18:55;98485.84;;;12.21;100.00
19510;BME280;9896;42.486;26.506;2023-04-01T18:24:24;98498.22;;;12.00;100.00
19510;BME280;9896;42.486;26.506;2023-04-01T18:27:03;98495.84;;;12.03;100.00
19510;BME280;9896;42.486;26.506;2023-04-01T18:29:37;98493.88;;;11.94;100.00
19510;BME280;9896;42.486;26.506;2023-04-01T18:32:26;98491.78;;;12.01;100.00
19510;BME280;9896;42.486;26.506;2023-04-01T18:37:53;98490.66;;;11.97;100.00
19510;BME280;9896;42.486;26.506;2023-04-01T18:40:45;98487.72;;;11.98;100.00
19510;BME280;9896;42.486;26.506;2023-04-01T18:43:33;98496.81;;;12.14;100.00
19510;BME280;9896;42.486;26.506;2023-04-01T18:46:19;98493.47;;;12.07;100.00
19510;BME280;9896;42.486;26.506;2023-04-01T18:54:21;98503.53;;;11.95;100.00
19510;BME280;9896;42.486;26.506;2023-04-01T18:57:12;98512.47;;;12.00;100.00
19510;BME280;9896;42.486;26.506;2023-04-01T19:00:04;98510.69;;;12.06;100.00
19510;BME280;9896;42.486;26.506;2023-04-01T19:02:40;98507.66;;;12.02;100.00
19510;BME280;9896;42.486;26.506;2023-04-01T19:05:12;98516.84;;;12.06;100.00
19510;BME280;9896;42.486;26.506;2023-04-01T19:07:45;98515.47;;;12.04;100.00
19510;BME280;9896;42.486;26.506;2023-04-01T19:15:39;98491.72;;;12.18;100.00
19510;BME280;9896;42.486;26.506;2023-04-01T19:21:41;98494.53;;;12.28;100.00
19510;BME280;9896;42.486;26.506;2023-04-01T19:27:14;98504.97;;;12.24;100.00
19510;BME280;9896;42.486;26.506;2023-04-01T19:29:51;98532.03;;;12.18;100.00
19510;BME280;9896;42.486;26.506;2023-04-01T19:32:59;98541.47;;;12.20;100.00
19510;BME280;9896;42.486;26.506;2023-04-01T19:40:54;98522.22;;;12.28;100.00
19510;BME280;9896;42.486;26.506;2023-04-01T19:43:31;98528.34;;;12.24;100.00
19510;BME280;9896;42.486;26.506;2023-04-01T19:54:11;98537.06;;;12.31;100.00
19510;BME280;9896;42.486;26.506;2023-04-01T19:56:53;98546.66;;;12.27;100.00
19510;BME280;9896;42.486;26.506;2023-04-01T19:59:34;98550.09;;;12.22;100.00
19510;BME280;9896;42.486;26.506;2023-04-01T20:04:45;98582.09;;;12.24;100.00
19510;BME280;9896;42.486;26.506;2023-04-01T20:07:25;98586.75;;;12.11;100.00
19510;BME280;9896;42.486;26.506;2023-04-01T20:10:12;98574.03;;;12.24;100.00
19510;BME280;9896;42.486;26.506;2023-04-01T20:20:39;98531.09;;;12.07;100.00
19510;BME280;9896;42.486;26.506;2023-04-01T20:23:34;98539.84;;;12.19;100.00
19510;BME280;9896;42.486;26.506;2023-04-01T20:26:11;98556.91;;;12.08;100.00
19510;BME280;9896;42.486;26.506;2023-04-01T20:31:31;98574.75;;;11.97;100.00
19510;BME280;9896;42.486;26.506;2023-04-01T20:37:32;98544.81;;;11.89;100.00
19510;BME280;9896;42.486;26.506;2023-04-01T20:42:55;98488.22;;;11.95;100.00
19510;BME280;9896;42.486;26.506;2023-04-01T20:45:31;98521.97;;;12.08;100.00
19510;BME280;9896;42.486;26.506;2023-04-01T20:53:36;98531.41;;;11.89;100.00
19510;BME280;9896;42.486;26.506;2023-04-01T21:07:40;98576.72;;;11.52;100.00
19510;BME280;9896;42.486;26.506;2023-04-01T21:26:47;98616.69;;;11.03;100.00
19510;BME280;9896;42.486;26.506;2023-04-01T21:29:33;98605.53;;;10.95;100.00
19510;BME280;9896;42.486;26.506;2023-04-01T21:34:55;98620.53;;;10.79;100.00
19510;BME280;9896;42.486;26.506;2023-04-01T22:08:20;98640.06;;;10.40;100.00
19510;BME280;9896;42.486;26.506;2023-04-01T22:10:57;98641.50;;;10.42;100.00
19510;BME280;9896;42.486;26.506;2023-04-01T22:21:59;98653.97;;;10.25;100.00
19510;BME280;9896;42.486;26.506;2023-04-01T22:25:08;98652.69;;;10.16;100.00
19510;BME280;9896;42.486;26.506;2023-04-01T22:27:50;98648.25;;;10.10;100.00
19510;BME280;9896;42.486;26.506;2023-04-01T22:30:31;98646.84;;;9.96;100.00
19510;BME280;9896;42.486;26.506;2023-04-01T22:43:40;98657.72;;;9.48;100.00
19510;BME280;9896;42.486;26.506;2023-04-01T22:52:04;98653.63;;;9.33;100.00
19510;BME280;9896;42.486;26.506;2023-04-01T22:55:22;98659.13;;;9.50;100.00
19510;BME280;9896;42.486;26.506;2023-04-01T22:57:58;98660.91;;;9.56;100.00
19510;BME280;9896;42.486;26.506;2023-04-01T23:00:39;98631.84;;;9.30;100.00
19510;BME280;9896;42.486;26.506;2023-04-01T23:05:50;98652.22;;;9.31;100.00
19510;BME280;9896;42.486;26.506;2023-04-01T23:09:14;98664.91;;;9.06;100.00
19510;BME280;9896;42.486;26.506;2023-04-01T23:11:55;98676.50;;;8.88;100.00
19510;BME280;9896;42.486;26.506;2023-04-01T23:35:54;98689.44;;;8.55;100.00
19510;BME280;9896;42.486;26.506;2023-04-01T23:38:23;98689.78;;;8.40;100.00
19510;BME280;9896;42.486;26.506;2023-04-01T23:40:52;98692.53;;;8.33;100.00
19510;BME280;9896;42.486;26.506;2023-04-01T23:45:55;98697.25;;;8.31;100.00
19510;BME280;9896;42.486;26.506;2023-04-01T23:48:29;98700.63;;;8.02;100.00
19510;BME280;9896;42.486;26.506;2023-04-01T23:50:56;98698.06;;;7.89;100.00
19510;BME280;9896;42.486;26.506;2023-04-01T23:53:25;98695.00;;;7.85;100.00
19510;BME280;9896;42.486;26.506;2023-04-01T23:55:51;98703.28;;;7.77;100.00
19510;BME280;9896;42.486;26.506;2023-04-01T23:58:23;98698.53;;;7.79;100.00
